createdAt,value
2023-02-08T00:00:15.268Z,44.78
2023-02-08T00:02:18.354Z,42.90
2023-02-08T00:04:22.836Z,45.20
2023-02-08T00:06:25.831Z,43.53
2023-02-08T00:08:28.991Z,46.03
2023-02-08T00:10:32.525Z,41.13
2023-02-08T00:12:35.581Z,45.70
2023-02-08T00:14:38.614Z,44.33
2023-02-08T00:16:41.653Z,36.67
2023-02-08T00:18:44.773Z,39.55
2023-02-08T00:20:49.240Z,44.13
2023-02-08T00:22:53.439Z,42.72
2023-02-08T00:24:56.580Z,39.65
2023-02-08T00:26:59.603Z,38.22
2023-02-08T00:29:02.705Z,42.33
2023-02-08T00:31:06.681Z,44.40
2023-02-08T00:33:11.016Z,42.53
2023-02-08T00:35:14.213Z,42.70
2023-02-08T00:37:19.163Z,41.78
2023-02-08T00:39:24.462Z,45.35
2023-02-08T00:41:28.250Z,43.63
2023-02-08T00:43:31.294Z,42.17
2023-02-08T00:45:34.877Z,39.20
2023-02-08T00:47:37.973Z,40.20
2023-02-08T00:49:40.994Z,40.25
2023-02-08T00:51:44.044Z,39.83
2023-02-08T00:53:49.287Z,44.40
2023-02-08T00:55:52.852Z,47.08
2023-02-08T00:57:55.966Z,40.78
2023-02-08T00:59:58.991Z,40.67
2023-02-08T01:02:02.125Z,43.33
2023-02-08T01:04:05.511Z,41.70
2023-02-08T01:06:11.714Z,41.50
2023-02-08T01:08:15.114Z,40.13
2023-02-08T01:10:19.534Z,39.22
2023-02-08T01:12:22.592Z,39.85
2023-02-08T01:14:26.095Z,41.47
2023-02-08T01:16:31.910Z,43.40
2023-02-08T01:18:36.609Z,41.10
2023-02-08T01:20:39.825Z,38.35
2023-02-08T01:22:43.042Z,40.45
2023-02-08T01:24:46.113Z,42.92
2023-02-08T01:26:50.517Z,39.22
2023-02-08T01:28:55.495Z,40.22
2023-02-08T01:30:59.331Z,38.67
2023-02-08T01:33:02.344Z,34.88
2023-02-08T01:35:05.905Z,41.75
2023-02-08T01:37:08.886Z,39.55
2023-02-08T01:39:12.762Z,40.15
2023-02-08T01:41:18.988Z,38.90
2023-02-08T01:43:26.452Z,36.55
2023-02-08T01:45:31.869Z,40.80
2023-02-08T01:47:35.034Z,40.25
2023-02-08T01:49:39.080Z,39.88
2023-02-08T01:51:46.772Z,39.75
2023-02-08T01:53:52.070Z,39.20
2023-02-08T01:55:58.587Z,39.65
2023-02-08T01:58:04.866Z,40.85
2023-02-08T02:00:15.198Z,43.10
2023-02-08T02:02:22.698Z,36.97
2023-02-08T02:04:27.384Z,41.78
2023-02-08T02:06:35.001Z,37.85
2023-02-08T02:08:39.271Z,44.70
2023-02-08T02:10:43.526Z,38.25
2023-02-08T02:12:47.452Z,38.95
2023-02-08T02:14:50.871Z,39.10
2023-02-08T02:16:55.302Z,39.28
2023-02-08T02:18:58.595Z,38.38
2023-02-08T02:21:41.040Z,41.70
2023-02-08T02:24:19.436Z,43.72
2023-02-08T02:27:03.924Z,37.70
2023-02-08T02:29:28.314Z,39.30
2023-02-08T02:31:57.634Z,41.95
2023-02-08T02:34:08.165Z,42.50
2023-02-08T02:36:22.289Z,37.45
2023-02-08T02:38:35.492Z,40.58
2023-02-08T02:40:50.997Z,37.55
2023-02-08T02:43:21.588Z,38.50
2023-02-08T02:45:32.181Z,39.53
2023-02-08T02:47:42.360Z,32.28
2023-02-08T02:49:51.882Z,38.83
2023-02-08T02:51:59.794Z,40.45
2023-02-08T02:54:09.583Z,37.63
2023-02-08T02:56:16.885Z,41.30
2023-02-08T02:58:25.933Z,43.30
2023-02-08T03:00:31.006Z,39.13
2023-02-08T03:02:34.039Z,38.40
2023-02-08T03:04:54.212Z,40.53
2023-02-08T03:07:07.078Z,43.10
2023-02-08T03:09:26.759Z,37.53
2023-02-08T03:11:34.041Z,40.72
2023-02-08T03:13:52.675Z,40.78
2023-02-08T03:16:04.409Z,39.42
2023-02-08T03:18:22.487Z,40.80
2023-02-08T03:20:31.854Z,40.33
2023-02-08T03:22:44.424Z,43.95
2023-02-08T03:24:55.259Z,43.58
2023-02-08T03:27:04.798Z,45.58
2023-02-08T03:29:15.771Z,41.85
2023-02-08T03:31:25.926Z,40.42
2023-02-08T03:33:36.264Z,40.58
2023-02-08T03:35:46.196Z,43.25
2023-02-08T03:37:55.165Z,45.00
2023-02-08T03:40:05.238Z,43.88
2023-02-08T03:42:16.172Z,42.22
2023-02-08T03:44:24.365Z,44.20
2023-02-08T03:46:30.821Z,42.90
2023-02-08T03:48:37.401Z,47.28
2023-02-08T03:50:45.288Z,43.28
2023-02-08T03:52:49.822Z,51.80
2023-02-08T03:54:56.586Z,50.65
2023-02-08T03:57:07.846Z,46.67
2023-02-08T03:59:15.983Z,48.35
2023-02-08T04:01:24.662Z,44.92
2023-02-08T04:03:31.557Z,52.55
2023-02-08T04:05:34.833Z,43.95
2023-02-08T04:07:39.377Z,48.00
2023-02-08T04:09:42.489Z,43.38
2023-02-08T04:11:45.516Z,43.63
2023-02-08T04:13:48.658Z,45.88
2023-02-08T04:15:51.697Z,46.45
2023-02-08T04:17:55.052Z,47.63
2023-02-08T04:19:58.134Z,46.15
2023-02-08T04:22:01.208Z,42.85
2023-02-08T04:24:05.837Z,46.05
2023-02-08T04:26:09.997Z,48.45
2023-02-08T04:28:13.095Z,49.17
2023-02-08T04:30:16.230Z,46.83
2023-02-08T04:32:19.363Z,49.80
2023-02-08T04:34:22.502Z,54.38
2023-02-08T04:36:25.617Z,50.08
2023-02-08T04:38:28.712Z,48.15
2023-02-08T04:40:33.371Z,46.95
2023-02-08T04:42:36.525Z,50.35
2023-02-08T04:44:39.622Z,50.20
2023-02-08T04:46:42.877Z,45.78
2023-02-08T04:48:46.075Z,48.17
2023-02-08T04:50:49.224Z,50.53
2023-02-08T04:52:52.280Z,52.47
2023-02-08T04:54:55.319Z,51.35
2023-02-08T04:56:59.718Z,51.20
2023-02-08T04:59:03.859Z,46.28
2023-02-08T05:01:08.328Z,53.90
2023-02-08T05:03:11.622Z,50.13
2023-02-08T05:05:14.775Z,46.38
2023-02-08T05:07:17.793Z,49.17
2023-02-08T05:09:20.817Z,50.35
2023-02-08T05:11:25.051Z,48.78
2023-02-08T05:13:29.563Z,48.45
2023-02-08T05:15:32.546Z,55.95
2023-02-08T05:17:35.601Z,52.33
2023-02-08T05:19:38.636Z,56.83
2023-02-08T05:21:41.777Z,54.35
2023-02-08T05:23:46.755Z,49.80
2023-02-08T05:25:49.957Z,53.85
2023-02-08T05:27:53.092Z,56.88
2023-02-08T05:29:59.004Z,55.58
2023-02-08T05:32:02.357Z,56.28
2023-02-08T05:34:05.525Z,56.63
2023-02-08T05:36:09.072Z,59.63
2023-02-08T05:38:12.305Z,56.20
2023-02-08T05:40:15.441Z,56.20
2023-02-08T05:42:18.492Z,58.05
2023-02-08T05:44:21.637Z,59.13
2023-02-08T05:46:26.232Z,56.53
2023-02-08T05:48:30.838Z,54.83
2023-02-08T05:50:34.439Z,55.42
2023-02-08T05:52:37.633Z,55.65
2023-02-08T05:54:40.743Z,55.20
2023-02-08T05:56:43.843Z,55.42
2023-02-08T05:58:46.869Z,57.78
2023-02-08T06:00:49.925Z,60.83
2023-02-08T06:02:54.441Z,52.83
2023-02-08T06:04:57.484Z,48.83
2023-02-08T06:07:00.471Z,60.20
2023-02-08T06:09:03.484Z,53.08
2023-02-08T06:11:07.303Z,60.05
2023-02-08T06:13:10.369Z,53.95
2023-02-08T06:15:13.529Z,55.35
2023-02-08T06:17:16.532Z,61.90
2023-02-08T06:19:21.164Z,58.40
2023-02-08T06:21:24.656Z,55.97
2023-02-08T06:23:27.773Z,50.53
2023-02-08T06:25:30.775Z,54.03
2023-02-08T06:27:33.824Z,56.38
2023-02-08T06:29:36.907Z,56.00
2023-02-08T06:31:40.193Z,52.03
2023-02-08T06:33:43.725Z,57.38
2023-02-08T06:35:48.829Z,56.40
2023-02-08T06:37:51.868Z,57.58
2023-02-08T06:39:54.868Z,55.45
2023-02-08T06:41:58.672Z,58.13
2023-02-08T06:44:02.407Z,56.05
2023-02-08T06:46:08.563Z,54.35
2023-02-08T06:48:11.663Z,58.22
2023-02-08T06:50:15.485Z,56.28
2023-02-08T06:52:20.646Z,55.45
2023-02-08T06:54:23.690Z,59.38
2023-02-08T06:56:26.819Z,56.33
2023-02-08T06:58:29.881Z,56.75
2023-02-08T07:00:32.922Z,58.95
2023-02-08T07:02:36.060Z,58.60
2023-02-08T07:04:39.294Z,60.25
2023-02-08T07:06:42.399Z,53.95
2023-02-08T07:08:48.020Z,56.78
2023-02-08T07:10:51.045Z,58.95
2023-02-08T07:12:54.060Z,57.70
2023-02-08T07:14:57.099Z,59.78
2023-02-08T07:17:00.449Z,57.17
2023-02-08T07:19:03.546Z,54.95
2023-02-08T07:21:07.013Z,58.60
2023-02-08T07:23:11.571Z,55.60
2023-02-08T07:25:16.002Z,56.42
2023-02-08T07:27:19.058Z,61.42
2023-02-08T07:29:22.223Z,58.83
2023-02-08T07:31:25.260Z,56.35
2023-02-08T07:33:28.362Z,58.08
2023-02-08T07:35:31.421Z,61.38
2023-02-08T07:37:34.464Z,59.13
2023-02-08T07:39:37.575Z,56.80
2023-02-08T07:41:44.699Z,61.58
2023-02-08T07:43:47.975Z,60.20
2023-02-08T07:45:51.172Z,60.88
2023-02-08T07:47:54.327Z,59.22
2023-02-08T07:49:57.401Z,62.72
2023-02-08T07:52:00.816Z,58.85
2023-02-08T07:54:03.949Z,55.42
2023-02-08T07:56:08.161Z,57.72
2023-02-08T07:58:12.673Z,58.92
2023-02-08T08:00:17.674Z,55.20
2023-02-08T08:02:20.735Z,55.30
2023-02-08T08:04:23.800Z,55.35
2023-02-08T08:06:27.075Z,55.95
2023-02-08T08:08:30.165Z,54.53
2023-02-08T08:10:33.166Z,56.85
2023-02-08T08:12:36.206Z,57.60
2023-02-08T08:14:40.610Z,51.85
2023-02-08T08:16:43.843Z,56.65
2023-02-08T08:18:47.417Z,57.22
2023-02-08T08:20:50.394Z,56.78
2023-02-08T08:22:53.632Z,57.60
2023-02-08T08:24:58.192Z,51.85
2023-02-08T08:27:01.524Z,53.83
2023-02-08T08:29:05.003Z,51.95
2023-02-08T08:31:12.925Z,53.30
2023-02-08T08:33:16.076Z,51.10
2023-02-08T08:35:19.216Z,54.75
2023-02-08T08:37:22.237Z,52.60
2023-02-08T08:39:27.251Z,52.40
2023-02-08T08:41:30.238Z,53.70
2023-02-08T08:43:33.281Z,51.28
2023-02-08T08:45:36.607Z,53.30
2023-02-08T08:47:44.546Z,52.60
2023-02-08T08:49:48.764Z,53.50
2023-02-08T08:51:51.977Z,57.05
2023-02-08T08:53:54.985Z,53.10
2023-02-08T08:55:58.010Z,48.42
2023-02-08T08:58:01.019Z,49.78
2023-02-08T09:00:05.468Z,52.65
2023-02-08T09:02:08.551Z,51.30
2023-02-08T09:04:13.184Z,47.50
2023-02-08T09:06:16.228Z,44.70
2023-02-08T09:08:19.665Z,46.85
2023-02-08T09:10:22.680Z,48.97
2023-02-08T09:12:25.750Z,51.00
2023-02-08T09:14:28.972Z,48.38
2023-02-08T09:16:32.117Z,49.05
2023-02-08T09:18:35.413Z,52.15
2023-02-08T09:20:44.667Z,50.28
2023-02-08T09:22:53.896Z,56.95
2023-02-08T09:24:57.800Z,46.50
2023-02-08T09:27:02.009Z,54.53
2023-02-08T09:29:06.641Z,51.58
2023-02-08T09:31:10.842Z,48.88
2023-02-08T09:33:13.880Z,51.50
2023-02-08T09:35:16.909Z,47.95
2023-02-08T09:37:21.501Z,48.67
2023-02-08T09:39:26.514Z,47.60
2023-02-08T09:41:46.807Z,49.78
2023-02-08T09:43:59.040Z,57.13
2023-02-08T09:46:06.962Z,48.47
2023-02-08T09:48:19.450Z,47.38
2023-02-08T09:50:29.592Z,48.53
2023-02-08T09:52:40.040Z,47.42
2023-02-08T09:54:48.049Z,52.53
2023-02-08T09:56:52.087Z,43.85
2023-02-08T09:58:57.630Z,50.90
2023-02-08T10:01:03.118Z,50.72
2023-02-08T10:03:16.911Z,47.88
2023-02-08T10:05:23.526Z,44.83
2023-02-08T10:07:27.548Z,46.03
2023-02-08T10:09:31.966Z,44.30
2023-02-08T10:11:49.078Z,44.40
2023-02-08T10:14:05.036Z,46.30
2023-02-08T10:16:19.496Z,47.70
2023-02-08T10:18:35.323Z,49.05
2023-02-08T10:20:57.405Z,47.83
2023-02-08T10:23:09.700Z,48.85
2023-02-08T10:25:23.301Z,50.63
2023-02-08T10:27:39.934Z,49.15
2023-02-08T10:30:11.570Z,50.67
2023-02-08T10:32:35.285Z,51.17
2023-02-08T10:34:45.910Z,40.35
2023-02-08T10:36:48.881Z,45.50
2023-02-08T10:38:54.939Z,46.50
2023-02-08T10:41:01.165Z,43.60
2023-02-08T10:43:20.671Z,47.85
2023-02-08T10:45:28.745Z,43.10
2023-02-08T10:47:44.216Z,42.55
2023-02-08T10:49:55.221Z,42.40
2023-02-08T10:51:58.344Z,44.90
2023-02-08T10:54:01.437Z,42.70
2023-02-08T10:56:07.037Z,44.58
2023-02-08T10:58:18.030Z,44.38
2023-02-08T11:00:24.576Z,42.20
2023-02-08T11:02:30.786Z,43.00
2023-02-08T11:04:33.915Z,44.28
2023-02-08T11:06:37.513Z,43.22
2023-02-08T11:08:55.841Z,44.05
2023-02-08T11:11:04.160Z,41.47
2023-02-08T11:13:19.119Z,43.90
2023-02-08T11:15:24.431Z,41.83
2023-02-08T11:17:30.645Z,41.35
2023-02-08T11:19:39.181Z,47.90
2023-02-08T11:21:45.334Z,50.13
2023-02-08T11:23:52.485Z,47.53
2023-02-08T11:25:56.918Z,45.63
2023-02-08T11:28:01.000Z,43.53
2023-02-08T11:30:23.484Z,45.75
2023-02-08T11:32:26.774Z,47.90
2023-02-08T11:34:32.780Z,49.55
2023-02-08T11:36:37.053Z,49.00
2023-02-08T11:38:44.012Z,47.45
2023-02-08T11:40:47.436Z,47.53
2023-02-08T11:42:51.303Z,46.53
2023-02-08T11:44:55.696Z,45.25
2023-02-08T11:47:02.377Z,43.15
2023-02-08T11:49:05.791Z,43.83
2023-02-08T11:51:09.888Z,45.13
2023-02-08T11:53:27.701Z,42.42
2023-02-08T11:55:33.432Z,48.08
2023-02-08T11:57:36.573Z,43.72
2023-02-08T11:59:39.950Z,45.70
2023-02-08T12:01:43.981Z,43.25
2023-02-08T12:03:51.656Z,42.80
2023-02-08T12:06:12.370Z,42.00
2023-02-08T12:08:25.020Z,32.28
2023-02-08T12:11:01.188Z,46.13
2023-02-08T12:13:30.107Z,48.42
2023-02-08T12:15:57.056Z,44.80
2023-02-08T12:18:13.245Z,48.13
2023-02-08T12:20:36.856Z,42.38
2023-02-08T12:22:43.277Z,47.50
2023-02-08T12:24:51.365Z,42.10
2023-02-08T12:27:07.551Z,44.08
2023-02-08T12:29:23.454Z,42.88
2023-02-08T12:31:37.922Z,40.92
2023-02-08T12:33:48.549Z,43.58
2023-02-08T12:36:10.553Z,44.70
2023-02-08T12:38:41.020Z,45.53
2023-02-08T12:40:53.858Z,40.25
2023-02-08T12:43:08.776Z,47.28
2023-02-08T12:45:40.429Z,41.83
2023-02-08T12:48:04.129Z,38.28
2023-02-08T12:50:20.696Z,39.53
2023-02-08T12:52:35.321Z,38.70
2023-02-08T12:54:42.594Z,41.03
2023-02-08T12:57:00.336Z,41.53
2023-02-08T12:59:13.467Z,40.08
2023-02-08T13:01:20.508Z,38.42
2023-02-08T13:03:36.394Z,42.00
2023-02-08T13:05:53.532Z,38.47
2023-02-08T13:08:07.965Z,33.15
2023-02-08T13:10:20.751Z,38.90
2023-02-08T13:12:28.062Z,35.03
2023-02-08T13:14:35.548Z,36.65
2023-02-08T13:16:44.661Z,41.45
2023-02-08T13:18:51.658Z,34.90
2023-02-08T13:20:59.343Z,51.13
2023-02-08T13:23:13.399Z,37.10
2023-02-08T13:25:30.918Z,73.10
2023-02-08T13:27:33.978Z,42.28
2023-02-08T13:29:37.516Z,36.40
2023-02-08T13:31:44.211Z,41.20
2023-02-08T13:34:01.295Z,33.00
2023-02-08T13:36:05.998Z,32.00
2023-02-08T13:38:23.563Z,32.28
2023-02-08T13:40:30.547Z,30.08
2023-02-08T13:42:39.640Z,33.42
2023-02-08T13:44:42.798Z,32.67
2023-02-08T13:46:47.935Z,33.00
2023-02-08T13:48:53.620Z,31.05
2023-02-08T13:50:57.308Z,32.63
2023-02-08T13:53:00.894Z,31.13
2023-02-08T13:55:55.859Z,32.65
2023-02-08T13:58:01.740Z,29.02
2023-02-08T14:00:23.139Z,33.70
2023-02-08T14:02:30.635Z,33.22
2023-02-08T14:04:36.958Z,30.63
2023-02-08T14:06:50.888Z,29.27
2023-02-08T14:08:59.180Z,30.33
2023-02-08T14:11:12.166Z,30.45
2023-02-08T14:13:29.386Z,27.35
2023-02-08T14:15:38.054Z,28.55
2023-02-08T14:17:44.844Z,30.27
2023-02-08T14:19:58.762Z,23.63
2023-02-08T14:22:04.188Z,20.60
2023-02-08T14:24:09.849Z,23.73
2023-02-08T14:26:24.281Z,20.02
2023-02-08T14:28:33.492Z,18.88
2023-02-08T14:30:38.531Z,20.67
2023-02-08T14:32:44.063Z,17.55
2023-02-08T14:34:47.707Z,19.42
2023-02-08T14:37:04.875Z,22.85
2023-02-08T14:39:24.666Z,20.30
2023-02-08T14:41:49.922Z,17.98
2023-02-08T14:43:54.466Z,18.17
2023-02-08T14:45:58.025Z,20.73
2023-02-08T14:48:17.868Z,18.38
2023-02-08T14:50:25.269Z,20.13
2023-02-08T14:52:29.441Z,19.25
2023-02-08T14:54:38.666Z,16.83
2023-02-08T14:56:51.503Z,17.13
2023-02-08T14:59:01.189Z,20.13
2023-02-08T15:01:08.872Z,22.40
2023-02-08T15:03:16.111Z,19.85
2023-02-08T15:05:23.712Z,17.05
2023-02-08T15:07:33.732Z,17.67
2023-02-08T15:09:40.318Z,17.55
2023-02-08T15:11:43.771Z,17.25
2023-02-08T15:13:50.626Z,19.77
2023-02-08T15:15:57.150Z,21.05
2023-02-08T15:18:02.314Z,18.33
2023-02-08T15:20:08.497Z,21.75
2023-02-08T15:22:19.317Z,19.35
2023-02-08T15:24:24.169Z,26.48
2023-02-08T15:26:28.042Z,21.40
2023-02-08T15:28:34.865Z,23.20
2023-02-08T15:30:40.464Z,20.75
2023-02-08T15:32:44.978Z,23.17
2023-02-08T15:34:54.360Z,21.90
2023-02-08T15:36:58.256Z,24.05
2023-02-08T15:39:04.813Z,26.05
2023-02-08T15:41:10.959Z,27.98
2023-02-08T15:43:14.707Z,24.50
2023-02-08T15:45:24.538Z,31.33
2023-02-08T15:47:29.558Z,25.33
2023-02-08T15:49:37.808Z,28.58
2023-02-08T15:51:41.278Z,26.30
2023-02-08T15:53:46.723Z,27.60
2023-02-08T15:55:53.403Z,29.05
2023-02-08T15:57:59.972Z,28.98
2023-02-08T16:00:05.296Z,32.25
2023-02-08T16:02:23.811Z,29.35
2023-02-08T16:04:27.439Z,27.42
2023-02-08T16:06:36.785Z,28.27
2023-02-08T16:08:44.179Z,31.60
2023-02-08T16:10:50.388Z,32.35
2023-02-08T16:12:54.646Z,27.35
2023-02-08T16:14:58.283Z,28.73
2023-02-08T16:17:01.453Z,32.88
2023-02-08T16:19:06.572Z,27.90
2023-02-08T16:21:28.622Z,27.98
2023-02-08T16:23:34.202Z,31.65
2023-02-08T16:25:44.455Z,31.75
2023-02-08T16:27:49.443Z,29.40
2023-02-08T16:29:52.697Z,32.28
2023-02-08T16:32:07.916Z,29.02
2023-02-08T16:34:17.294Z,32.28
2023-02-08T16:36:24.187Z,28.23
2023-02-08T16:38:27.557Z,28.48
2023-02-08T16:40:48.748Z,31.83
2023-02-08T16:42:51.856Z,30.00
2023-02-08T16:45:16.931Z,28.63
2023-02-08T16:47:27.859Z,29.17
2023-02-08T16:49:30.968Z,22.60
2023-02-08T16:51:35.749Z,26.50
2023-02-08T16:53:42.201Z,25.70
2023-02-08T16:55:47.141Z,24.42
2023-02-08T16:57:52.542Z,26.33
2023-02-08T16:59:56.711Z,26.42
2023-02-08T17:01:59.964Z,29.50
2023-02-08T17:04:03.109Z,27.98
2023-02-08T17:06:06.999Z,27.65
2023-02-08T17:08:15.906Z,29.15
2023-02-08T17:10:27.555Z,28.05
2023-02-08T17:12:33.102Z,29.40
2023-02-08T17:14:36.151Z,27.30
2023-02-08T17:16:39.944Z,31.80
2023-02-08T17:18:43.033Z,30.30
2023-02-08T17:20:47.072Z,32.78
2023-02-08T17:22:51.063Z,31.65
2023-02-08T17:24:54.195Z,33.65
2023-02-08T17:26:57.338Z,32.35
2023-02-08T17:29:01.809Z,33.90
2023-02-08T17:31:05.218Z,38.03
2023-02-08T17:33:11.438Z,32.17
2023-02-08T17:35:17.303Z,33.70
2023-02-08T17:37:21.586Z,35.67
2023-02-08T17:39:26.306Z,29.25
2023-02-08T17:41:29.462Z,35.75
2023-02-08T17:43:32.993Z,32.72
2023-02-08T17:45:41.310Z,33.85
2023-02-08T17:47:45.013Z,35.55
2023-02-08T17:49:48.305Z,33.08
2023-02-08T17:51:51.481Z,34.30
2023-02-08T17:53:55.281Z,33.17
2023-02-08T17:55:58.302Z,34.03
2023-02-08T17:58:01.329Z,35.95
2023-02-08T18:00:05.069Z,37.15
2023-02-08T18:02:16.533Z,34.10
2023-02-08T18:04:19.579Z,36.55
2023-02-08T18:06:23.836Z,34.92
2023-02-08T18:08:27.494Z,32.85
2023-02-08T18:10:30.546Z,36.53
2023-02-08T18:12:35.553Z,39.35
2023-02-08T18:14:39.201Z,38.92
2023-02-08T18:16:42.321Z,37.22
2023-02-08T18:18:47.119Z,35.03
2023-02-08T18:20:50.210Z,38.40
2023-02-08T18:22:53.544Z,37.60
2023-02-08T18:24:56.760Z,37.10
2023-02-08T18:27:00.105Z,40.38
2023-02-08T18:29:05.029Z,37.08
2023-02-08T18:31:10.772Z,40.78
2023-02-08T18:33:14.101Z,38.63
2023-02-08T18:35:18.704Z,39.00
2023-02-08T18:37:22.330Z,39.42
2023-02-08T18:39:25.595Z,39.20
2023-02-08T18:41:30.832Z,41.30
2023-02-08T18:43:34.122Z,39.97
2023-02-08T18:45:37.363Z,40.90
2023-02-08T18:47:40.557Z,39.15
2023-02-08T18:49:43.724Z,37.90
2023-02-08T18:51:48.934Z,42.35
2023-02-08T18:53:54.906Z,38.28
2023-02-08T18:56:00.513Z,41.45
2023-02-08T18:58:20.339Z,37.88
2023-02-08T19:00:24.345Z,38.88
2023-02-08T19:02:28.215Z,40.17
2023-02-08T19:04:31.496Z,39.60
2023-02-08T19:06:37.225Z,41.85
2023-02-08T19:08:42.583Z,38.03
2023-02-08T19:10:45.832Z,39.70
2023-02-08T19:12:48.908Z,41.00
2023-02-08T19:14:52.004Z,43.67
2023-02-08T19:16:55.847Z,37.03
2023-02-08T19:19:00.381Z,38.42
2023-02-08T19:21:07.640Z,40.35
2023-02-08T19:23:10.758Z,39.10
2023-02-08T19:25:15.350Z,38.80
2023-02-08T19:27:18.410Z,40.08
2023-02-08T19:29:22.741Z,42.97
2023-02-08T19:31:28.301Z,39.80
2023-02-08T19:33:31.521Z,40.00
2023-02-08T19:35:38.397Z,39.17
2023-02-08T19:37:42.431Z,45.25
2023-02-08T19:39:45.683Z,41.10
2023-02-08T19:41:51.117Z,42.42
2023-02-08T19:43:54.251Z,38.22
2023-02-08T19:45:57.403Z,40.72
2023-02-08T19:48:00.527Z,40.90
2023-02-08T19:50:03.719Z,42.15
2023-02-08T19:52:06.778Z,43.92
2023-02-08T19:54:17.080Z,40.72
2023-02-08T19:56:20.725Z,40.42
2023-02-08T19:58:25.508Z,44.15
2023-02-08T20:00:28.555Z,44.08
2023-02-08T20:02:31.690Z,45.40
2023-02-08T20:04:34.845Z,41.08
2023-02-08T20:06:38.766Z,42.78
2023-02-08T20:08:41.905Z,42.22
2023-02-08T20:10:46.899Z,43.67
2023-02-08T20:12:50.082Z,44.65
2023-02-08T20:14:54.715Z,47.28
2023-02-08T20:16:57.874Z,46.05
2023-02-08T20:19:01.539Z,46.35
2023-02-08T20:21:05.294Z,46.28
2023-02-08T20:23:22.016Z,46.75
2023-02-08T20:25:25.825Z,47.75
2023-02-08T20:27:32.154Z,47.03
2023-02-08T20:29:35.283Z,47.03
2023-02-08T20:31:42.550Z,49.05
2023-02-08T20:33:46.312Z,45.03
2023-02-08T20:35:49.383Z,47.95
2023-02-08T20:37:52.410Z,46.95
2023-02-08T20:39:55.615Z,48.92
2023-02-08T20:41:58.967Z,48.00
2023-02-08T20:44:02.899Z,50.42
2023-02-08T20:46:07.246Z,52.17
2023-02-08T20:48:11.674Z,50.58
2023-02-08T20:50:19.256Z,46.78
2023-02-08T20:52:23.919Z,48.70
2023-02-08T20:54:27.005Z,49.90
2023-02-08T20:56:32.760Z,51.13
2023-02-08T20:58:36.044Z,46.63
2023-02-08T21:00:42.642Z,52.33
2023-02-08T21:02:46.715Z,49.88
2023-02-08T21:04:51.353Z,46.45
2023-02-08T21:06:54.428Z,50.03
2023-02-08T21:08:58.597Z,47.47
2023-02-08T21:11:02.647Z,51.00
2023-02-08T21:13:05.715Z,52.08
2023-02-08T21:15:10.121Z,50.55
2023-02-08T21:17:13.224Z,52.17
2023-02-08T21:19:17.340Z,55.15
2023-02-08T21:21:22.148Z,56.08
2023-02-08T21:23:25.271Z,53.45
2023-02-08T21:25:28.434Z,53.85
2023-02-08T21:27:31.543Z,50.33
2023-02-08T21:29:34.707Z,51.25
2023-02-08T21:31:38.223Z,53.42
2023-02-08T21:33:42.312Z,50.92
2023-02-08T21:35:45.514Z,49.22
2023-02-08T21:37:49.967Z,51.55
2023-02-08T21:39:52.980Z,57.17
2023-02-08T21:41:56.399Z,57.70
2023-02-08T21:44:02.269Z,53.22
2023-02-08T21:46:06.451Z,55.08
2023-02-08T21:48:09.543Z,54.33
2023-02-08T21:50:30.354Z,58.47
2023-02-08T21:52:51.318Z,55.23
2023-02-08T21:54:55.914Z,56.92
2023-02-08T21:57:00.701Z,54.08
2023-02-08T21:59:03.983Z,55.83
2023-02-08T22:01:07.218Z,57.42
2023-02-08T22:03:10.413Z,56.75
2023-02-08T22:05:13.575Z,57.20
2023-02-08T22:07:17.378Z,53.17
2023-02-08T22:09:21.951Z,64.53
2023-02-08T22:11:26.374Z,56.78
2023-02-08T22:13:29.466Z,59.88
2023-02-08T22:15:34.938Z,57.03
2023-02-08T22:17:38.127Z,57.28
2023-02-08T22:19:42.262Z,57.30
2023-02-08T22:21:45.331Z,56.03
2023-02-08T22:23:48.476Z,66.70
2023-02-08T22:25:51.546Z,55.67
2023-02-08T22:27:56.210Z,58.83
2023-02-08T22:29:59.295Z,57.80
2023-02-08T22:32:02.441Z,57.65
2023-02-08T22:34:05.889Z,57.15
2023-02-08T22:36:10.867Z,60.42
2023-02-08T22:38:13.989Z,61.53
2023-02-08T22:40:17.478Z,55.10
2023-02-08T22:42:20.524Z,69.60
2023-02-08T22:44:24.966Z,59.05
2023-02-08T22:46:28.112Z,58.58
2023-02-08T22:48:31.201Z,63.85
2023-02-08T22:50:34.290Z,58.30
2023-02-08T22:52:37.391Z,58.13
2023-02-08T22:54:40.467Z,60.42
2023-02-08T22:56:43.478Z,56.55
2023-02-08T22:58:46.623Z,59.47
2023-02-08T23:00:51.269Z,60.10
2023-02-08T23:02:54.403Z,59.50
2023-02-08T23:04:57.568Z,59.63
2023-02-08T23:07:01.170Z,58.72
2023-02-08T23:09:06.070Z,55.38
2023-02-08T23:11:09.265Z,63.33
2023-02-08T23:13:12.893Z,58.22
2023-02-08T23:15:15.937Z,55.30
2023-02-08T23:17:20.362Z,59.45
2023-02-08T23:19:23.379Z,55.47
2023-02-08T23:21:26.438Z,58.70
2023-02-08T23:23:29.430Z,54.85
2023-02-08T23:25:32.519Z,55.92
2023-02-08T23:27:35.562Z,61.25
2023-02-08T23:29:38.643Z,61.08
2023-02-08T23:31:42.029Z,57.70
2023-02-08T23:33:46.470Z,58.58
2023-02-08T23:35:49.499Z,57.22
2023-02-08T23:37:52.587Z,62.25
2023-02-08T23:39:55.620Z,63.50
2023-02-08T23:41:58.688Z,63.50
2023-02-08T23:44:01.699Z,60.65
2023-02-08T23:46:07.582Z,62.85
2023-02-08T23:48:10.610Z,57.30
2023-02-08T23:50:15.222Z,57.47
2023-02-08T23:52:18.690Z,58.22
2023-02-08T23:54:21.735Z,60.45
2023-02-08T23:56:26.503Z,63.22
2023-02-08T23:58:29.560Z,63.30
